sensor_id;sensor_type;location;lat;lon;timestamp;pressure;altitude;pressure_sealevel;temperature;humidity
31538;BME280;18147;51.952;6.146;2023-05-20T00:00:31;102380.28;;;12.06;100.00
31538;BME280;18147;51.952;6.146;2023-05-20T00:02:57;102377.00;;;11.99;100.00
31538;BME280;18147;51.952;6.146;2023-05-20T00:05:25;102373.66;;;11.94;100.00
31538;BME280;18147;51.952;6.146;2023-05-20T00:07:50;102377.16;;;11.96;100.00
31538;BME280;18147;51.952;6.146;2023-05-20T00:10:19;102374.66;;;12.12;100.00
31538;BME280;18147;51.952;6.146;2023-05-20T00:12:44;102378.72;;;12.21;100.00
31538;BME280;18147;51.952;6.146;2023-05-20T00:15:10;102377.25;;;12.13;100.00
31538;BME280;18147;51.952;6.146;2023-05-20T00:17:39;102375.22;;;12.18;100.00
31538;BME280;18147;51.952;6.146;2023-05-20T00:20:05;102368.41;;;12.32;100.00
31538;BME280;18147;51.952;6.146;2023-05-20T00:22:31;102376.97;;;12.19;100.00
31538;BME280;18147;51.952;6.146;2023-05-20T00:25:00;102373.81;;;12.30;100.00
31538;BME280;18147;51.952;6.146;2023-05-20T00:27:25;102373.09;;;12.27;100.00
31538;BME280;18147;51.952;6.146;2023-05-20T00:29:51;102375.19;;;12.20;100.00
31538;BME280;18147;51.952;6.146;2023-05-20T00:32:18;102372.56;;;12.18;100.00
31538;BME280;18147;51.952;6.146;2023-05-20T00:34:43;102368.03;;;12.21;100.00
31538;BME280;18147;51.952;6.146;2023-05-20T00:37:09;102365.09;;;12.06;100.00
31538;BME280;18147;51.952;6.146;2023-05-20T00:39:35;102367.78;;;12.06;100.00
31538;BME280;18147;51.952;6.146;2023-05-20T00:42:00;102363.97;;;12.12;100.00
31538;BME280;18147;51.952;6.146;2023-05-20T00:44:28;102371.53;;;12.02;100.00
31538;BME280;18147;51.952;6.146;2023-05-20T00:46:57;102367.50;;;12.12;100.00
31538;BME280;18147;51.952;6.146;2023-05-20T00:49:22;102366.25;;;12.01;100.00
31538;BME280;18147;51.952;6.146;2023-05-20T00:51:48;102360.91;;;12.01;100.00
31538;BME280;18147;51.952;6.146;2023-05-20T00:54:15;102368.94;;;12.01;100.00
31538;BME280;18147;51.952;6.146;2023-05-20T00:56:41;102367.31;;;11.97;100.00
31538;BME280;18147;51.952;6.146;2023-05-20T00:59:07;102361.22;;;11.93;100.00
31538;BME280;18147;51.952;6.146;2023-05-20T01:01:34;102355.56;;;12.01;100.00
31538;BME280;18147;51.952;6.146;2023-05-20T01:04:03;102362.81;;;11.77;100.00
31538;BME280;18147;51.952;6.146;2023-05-20T01:06:30;102360.56;;;11.88;100.00
31538;BME280;18147;51.952;6.146;2023-05-20T01:09:00;102353.00;;;11.98;100.00
31538;BME280;18147;51.952;6.146;2023-05-20T01:11:30;102353.28;;;11.91;100.00
31538;BME280;18147;51.952;6.146;2023-05-20T01:14:03;102359.94;;;11.81;100.00
31538;BME280;18147;51.952;6.146;2023-05-20T01:16:31;102364.56;;;11.78;100.00
31538;BME280;18147;51.952;6.146;2023-05-20T01:19:01;102355.88;;;11.73;100.00
31538;BME280;18147;51.952;6.146;2023-05-20T01:21:31;102359.81;;;11.84;100.00
31538;BME280;18147;51.952;6.146;2023-05-20T01:24:01;102354.06;;;11.73;100.00
31538;BME280;18147;51.952;6.146;2023-05-20T01:26:28;102358.63;;;11.71;100.00
31538;BME280;18147;51.952;6.146;2023-05-20T01:28:54;102358.34;;;11.57;100.00
31538;BME280;18147;51.952;6.146;2023-05-20T01:31:23;102360.34;;;11.72;100.00
31538;BME280;18147;51.952;6.146;2023-05-20T01:33:54;102351.34;;;11.75;100.00
31538;BME280;18147;51.952;6.146;2023-05-20T01:36:21;102348.25;;;11.63;100.00
31538;BME280;18147;51.952;6.146;2023-05-20T01:38:48;102349.28;;;11.61;100.00
31538;BME280;18147;51.952;6.146;2023-05-20T01:41:15;102343.31;;;11.54;100.00
31538;BME280;18147;51.952;6.146;2023-05-20T01:43:44;102335.56;;;11.68;100.00
31538;BME280;18147;51.952;6.146;2023-05-20T01:46:09;102343.53;;;11.70;100.00
31538;BME280;18147;51.952;6.146;2023-05-20T01:48:35;102348.13;;;11.66;100.00
31538;BME280;18147;51.952;6.146;2023-05-20T01:51:02;102346.19;;;11.70;100.00
31538;BME280;18147;51.952;6.146;2023-05-20T01:53:31;102349.19;;;11.62;100.00
31538;BME280;18147;51.952;6.146;2023-05-20T01:55:56;102348.41;;;11.60;100.00
31538;BME280;18147;51.952;6.146;2023-05-20T01:58:22;102338.66;;;11.80;100.00
31538;BME280;18147;51.952;6.146;2023-05-20T02:00:49;102341.38;;;11.58;100.00
31538;BME280;18147;51.952;6.146;2023-05-20T02:03:15;102329.88;;;11.76;100.00
31538;BME280;18147;51.952;6.146;2023-05-20T02:05:40;102330.00;;;11.73;100.00
31538;BME280;18147;51.952;6.146;2023-05-20T02:08:06;102331.94;;;11.70;100.00
31538;BME280;18147;51.952;6.146;2023-05-20T02:10:32;102333.81;;;11.67;100.00
31538;BME280;18147;51.952;6.146;2023-05-20T02:12:57;102338.59;;;11.61;100.00
31538;BME280;18147;51.952;6.146;2023-05-20T02:15:24;102337.09;;;11.74;100.00
31538;BME280;18147;51.952;6.146;2023-05-20T02:17:50;102335.63;;;11.67;100.00
31538;BME280;18147;51.952;6.146;2023-05-20T02:20:18;102332.97;;;11.67;100.00
31538;BME280;18147;51.952;6.146;2023-05-20T02:22:43;102332.09;;;11.66;100.00
31538;BME280;18147;51.952;6.146;2023-05-20T02:25:09;102331.53;;;11.79;100.00
31538;BME280;18147;51.952;6.146;2023-05-20T02:27:35;102318.75;;;11.66;100.00
31538;BME280;18147;51.952;6.146;2023-05-20T02:30:01;102321.72;;;11.59;100.00
31538;BME280;18147;51.952;6.146;2023-05-20T02:32:26;102318.38;;;11.54;100.00
31538;BME280;18147;51.952;6.146;2023-05-20T02:34:56;102316.84;;;11.28;100.00
31538;BME280;18147;51.952;6.146;2023-05-20T02:37:22;102318.28;;;11.36;100.00
31538;BME280;18147;51.952;6.146;2023-05-20T02:39:47;102320.59;;;11.24;100.00
31538;BME280;18147;51.952;6.146;2023-05-20T02:42:14;102319.91;;;11.39;100.00
31538;BME280;18147;51.952;6.146;2023-05-20T02:44:39;102316.72;;;11.31;100.00
31538;BME280;18147;51.952;6.146;2023-05-20T02:47:06;102319.13;;;11.17;100.00
31538;BME280;18147;51.952;6.146;2023-05-20T02:49:32;102323.66;;;11.14;100.00
31538;BME280;18147;51.952;6.146;2023-05-20T02:51:58;102322.06;;;11.31;100.00
31538;BME280;18147;51.952;6.146;2023-05-20T02:54:23;102316.59;;;11.34;100.00
31538;BME280;18147;51.952;6.146;2023-05-20T02:56:49;102310.75;;;11.24;100.00
31538;BME280;18147;51.952;6.146;2023-05-20T02:59:14;102324.13;;;11.24;100.00
31538;BME280;18147;51.952;6.146;2023-05-20T03:01:40;102315.50;;;11.18;100.00
31538;BME280;18147;51.952;6.146;2023-05-20T03:04:06;102312.66;;;11.22;100.00
31538;BME280;18147;51.952;6.146;2023-05-20T03:06:32;102307.56;;;11.16;100.00
31538;BME280;18147;51.952;6.146;2023-05-20T03:08:59;102304.38;;;10.86;100.00
31538;BME280;18147;51.952;6.146;2023-05-20T03:11:25;102311.75;;;11.01;100.00
31538;BME280;18147;51.952;6.146;2023-05-20T03:13:51;102312.81;;;10.97;100.00
31538;BME280;18147;51.952;6.146;2023-05-20T03:16:17;102314.00;;;10.90;100.00
31538;BME280;18147;51.952;6.146;2023-05-20T03:18:44;102314.97;;;10.87;100.00
31538;BME280;18147;51.952;6.146;2023-05-20T03:21:11;102315.81;;;10.89;100.00
31538;BME280;18147;51.952;6.146;2023-05-20T03:23:37;102309.66;;;10.87;100.00
31538;BME280;18147;51.952;6.146;2023-05-20T03:26:05;102320.13;;;10.92;100.00
31538;BME280;18147;51.952;6.146;2023-05-20T03:28:32;102311.94;;;10.97;100.00
31538;BME280;18147;51.952;6.146;2023-05-20T03:31:00;102318.66;;;10.85;100.00
31538;BME280;18147;51.952;6.146;2023-05-20T03:33:28;102320.56;;;10.81;100.00
31538;BME280;18147;51.952;6.146;2023-05-20T03:35:54;102322.31;;;10.82;100.00
31538;BME280;18147;51.952;6.146;2023-05-20T03:38:20;102321.31;;;10.85;100.00
31538;BME280;18147;51.952;6.146;2023-05-20T03:40:45;102331.03;;;10.64;100.00
31538;BME280;18147;51.952;6.146;2023-05-20T03:43:12;102323.94;;;10.65;100.00
31538;BME280;18147;51.952;6.146;2023-05-20T03:45:38;102319.78;;;10.79;100.00
31538;BME280;18147;51.952;6.146;2023-05-20T03:48:06;102329.66;;;10.54;100.00
31538;BME280;18147;51.952;6.146;2023-05-20T03:50:35;102328.88;;;10.52;100.00
31538;BME280;18147;51.952;6.146;2023-05-20T03:53:00;102319.31;;;10.68;100.00
31538;BME280;18147;51.952;6.146;2023-05-20T03:55:31;102320.78;;;10.53;100.00
31538;BME280;18147;51.952;6.146;2023-05-20T03:57:58;102316.53;;;10.71;100.00
31538;BME280;18147;51.952;6.146;2023-05-20T04:00:25;102326.88;;;10.79;100.00
31538;BME280;18147;51.952;6.146;2023-05-20T04:02:50;102325.03;;;10.81;100.00
31538;BME280;18147;51.952;6.146;2023-05-20T04:05:18;102322.88;;;10.91;100.00
31538;BME280;18147;51.952;6.146;2023-05-20T04:07:45;102330.41;;;11.23;100.00
31538;BME280;18147;51.952;6.146;2023-05-20T04:10:12;102317.56;;;11.11;100.00
31538;BME280;18147;51.952;6.146;2023-05-20T04:12:37;102327.50;;;11.50;100.00
31538;BME280;18147;51.952;6.146;2023-05-20T04:15:06;102323.41;;;11.61;100.00
31538;BME280;18147;51.952;6.146;2023-05-20T04:17:43;102326.56;;;11.71;100.00
31538;BME280;18147;51.952;6.146;2023-05-20T04:20:12;102323.06;;;11.89;100.00
31538;BME280;18147;51.952;6.146;2023-05-20T04:22:38;102324.78;;;12.11;100.00
31538;BME280;18147;51.952;6.146;2023-05-20T04:25:06;102320.03;;;12.36;100.00
31538;BME280;18147;51.952;6.146;2023-05-20T04:27:32;102325.34;;;12.74;100.00
31538;BME280;18147;51.952;6.146;2023-05-20T04:30:00;102324.34;;;12.77;100.00
31538;BME280;18147;51.952;6.146;2023-05-20T04:32:31;102326.69;;;12.47;100.00
31538;BME280;18147;51.952;6.146;2023-05-20T04:35:00;102327.16;;;12.55;100.00
31538;BME280;18147;51.952;6.146;2023-05-20T04:37:37;102325.44;;;12.54;100.00
31538;BME280;18147;51.952;6.146;2023-05-20T04:40:07;102327.50;;;13.21;100.00
31538;BME280;18147;51.952;6.146;2023-05-20T04:42:34;102324.75;;;13.40;100.00
31538;BME280;18147;51.952;6.146;2023-05-20T04:45:02;102324.34;;;13.65;100.00
31538;BME280;18147;51.952;6.146;2023-05-20T04:47:35;102322.06;;;14.08;100.00
31538;BME280;18147;51.952;6.146;2023-05-20T04:50:08;102306.69;;;14.90;96.84
31538;BME280;18147;51.952;6.146;2023-05-20T04:52:42;102305.56;;;14.94;94.76
31538;BME280;18147;51.952;6.146;2023-05-20T04:55:08;102321.09;;;14.73;93.94
31538;BME280;18147;51.952;6.146;2023-05-20T04:57:39;102314.81;;;15.35;91.25
31538;BME280;18147;51.952;6.146;2023-05-20T05:00:08;102310.44;;;14.88;92.77
31538;BME280;18147;51.952;6.146;2023-05-20T05:02:35;102314.50;;;14.79;91.36
31538;BME280;18147;51.952;6.146;2023-05-20T05:05:02;102315.56;;;15.52;90.12
31538;BME280;18147;51.952;6.146;2023-05-20T05:07:27;102313.44;;;14.97;91.15
31538;BME280;18147;51.952;6.146;2023-05-20T05:09:53;102306.56;;;15.68;89.99
31538;BME280;18147;51.952;6.146;2023-05-20T05:12:20;102316.53;;;15.36;87.37
31538;BME280;18147;51.952;6.146;2023-05-20T05:14:48;102313.22;;;15.91;84.56
31538;BME280;18147;51.952;6.146;2023-05-20T05:17:14;102309.16;;;15.39;85.29
31538;BME280;18147;51.952;6.146;2023-05-20T05:19:40;102309.91;;;15.57;86.66
31538;BME280;18147;51.952;6.146;2023-05-20T05:22:06;102303.28;;;15.63;84.94
31538;BME280;18147;51.952;6.146;2023-05-20T05:24:33;102296.50;;;16.14;82.17
31538;BME280;18147;51.952;6.146;2023-05-20T05:27:00;102298.22;;;16.15;81.66
31538;BME280;18147;51.952;6.146;2023-05-20T05:29:25;102295.53;;;16.01;80.79
31538;BME280;18147;51.952;6.146;2023-05-20T05:31:51;102300.91;;;16.01;80.06
31538;BME280;18147;51.952;6.146;2023-05-20T05:34:18;102298.31;;;16.14;80.28
31538;BME280;18147;51.952;6.146;2023-05-20T05:36:43;102298.41;;;15.84;81.73
31538;BME280;18147;51.952;6.146;2023-05-20T05:39:09;102300.03;;;16.00;80.52
31538;BME280;18147;51.952;6.146;2023-05-20T05:41:35;102295.44;;;16.02;81.48
31538;BME280;18147;51.952;6.146;2023-05-20T05:44:01;102303.44;;;16.60;79.40
31538;BME280;18147;51.952;6.146;2023-05-20T05:46:27;102293.34;;;15.93;79.13
31538;BME280;18147;51.952;6.146;2023-05-20T05:48:53;102296.78;;;15.51;81.38
31538;BME280;18147;51.952;6.146;2023-05-20T05:51:18;102306.84;;;15.33;81.89
31538;BME280;18147;51.952;6.146;2023-05-20T05:53:45;102298.53;;;15.38;82.42
31538;BME280;18147;51.952;6.146;2023-05-20T05:56:11;102299.41;;;15.52;83.91
31538;BME280;18147;51.952;6.146;2023-05-20T05:58:37;102297.72;;;15.36;83.17
31538;BME280;18147;51.952;6.146;2023-05-20T06:01:06;102308.59;;;15.78;84.34
31538;BME280;18147;51.952;6.146;2023-05-20T06:03:32;102291.00;;;16.16;81.39
31538;BME280;18147;51.952;6.146;2023-05-20T06:05:57;102292.75;;;16.58;80.45
31538;BME280;18147;51.952;6.146;2023-05-20T06:08:23;102293.91;;;16.27;81.00
31538;BME280;18147;51.952;6.146;2023-05-20T06:10:49;102286.88;;;16.24;80.68
31538;BME280;18147;51.952;6.146;2023-05-20T06:13:16;102292.53;;;15.91;80.35
31538;BME280;18147;51.952;6.146;2023-05-20T06:15:44;102298.31;;;15.99;80.03
31538;BME280;18147;51.952;6.146;2023-05-20T06:18:11;102288.03;;;16.06;79.81
31538;BME280;18147;51.952;6.146;2023-05-20T06:20:37;102285.03;;;16.11;79.20
31538;BME280;18147;51.952;6.146;2023-05-20T06:23:03;102285.91;;;16.25;80.24
31538;BME280;18147;51.952;6.146;2023-05-20T06:25:42;102282.34;;;16.25;79.79
31538;BME280;18147;51.952;6.146;2023-05-20T06:28:08;102277.94;;;16.10;77.72
31538;BME280;18147;51.952;6.146;2023-05-20T06:30:35;102271.59;;;16.11;79.34
31538;BME280;18147;51.952;6.146;2023-05-20T06:33:01;102285.03;;;16.11;80.23
31538;BME280;18147;51.952;6.146;2023-05-20T06:35:27;102277.47;;;16.03;78.03
31538;BME280;18147;51.952;6.146;2023-05-20T06:37:52;102274.84;;;16.30;78.21
31538;BME280;18147;51.952;6.146;2023-05-20T06:40:20;102282.91;;;16.30;78.25
31538;BME280;18147;51.952;6.146;2023-05-20T06:42:45;102268.16;;;16.50;78.62
31538;BME280;18147;51.952;6.146;2023-05-20T06:45:12;102273.09;;;16.29;76.16
31538;BME280;18147;51.952;6.146;2023-05-20T06:47:47;102274.66;;;16.33;76.36
31538;BME280;18147;51.952;6.146;2023-05-20T06:50:14;102269.75;;;16.67;77.64
31538;BME280;18147;51.952;6.146;2023-05-20T06:52:41;102277.13;;;16.36;77.05
31538;BME280;18147;51.952;6.146;2023-05-20T06:55:10;102266.69;;;16.58;nan
31538;BME280;18147;51.952;6.146;2023-05-20T06:57:36;102261.06;;;17.03;75.10
31538;BME280;18147;51.952;6.146;2023-05-20T07:00:03;102258.19;;;17.19;75.08
31538;BME280;18147;51.952;6.146;2023-05-20T07:02:35;102262.84;;;16.90;74.41
31538;BME280;18147;51.952;6.146;2023-05-20T07:05:06;102261.78;;;16.92;72.93
31538;BME280;18147;51.952;6.146;2023-05-20T07:07:32;102272.22;;;16.84;73.28
31538;BME280;18147;51.952;6.146;2023-05-20T07:09:59;102261.31;;;17.25;73.58
31538;BME280;18147;51.952;6.146;2023-05-20T07:12:24;102256.03;;;17.37;74.07
31538;BME280;18147;51.952;6.146;2023-05-20T07:14:51;102266.03;;;17.22;72.34
31538;BME280;18147;51.952;6.146;2023-05-20T07:17:17;102268.38;;;17.01;71.10
31538;BME280;18147;51.952;6.146;2023-05-20T07:19:44;102250.97;;;17.70;72.49
31538;BME280;18147;51.952;6.146;2023-05-20T07:22:10;102250.84;;;17.46;71.76
31538;BME280;18147;51.952;6.146;2023-05-20T07:24:53;102254.34;;;17.74;71.55
31538;BME280;18147;51.952;6.146;2023-05-20T07:27:18;102253.72;;;17.83;70.73
31538;BME280;18147;51.952;6.146;2023-05-20T07:29:44;102254.88;;;17.79;73.91
31538;BME280;18147;51.952;6.146;2023-05-20T07:32:10;102239.44;;;17.94;70.65
31538;BME280;18147;51.952;6.146;2023-05-20T07:34:37;102249.50;;;17.79;71.99
31538;BME280;18147;51.952;6.146;2023-05-20T07:37:06;102241.91;;;17.71;70.99
31538;BME280;18147;51.952;6.146;2023-05-20T07:39:35;102241.38;;;17.66;70.40
31538;BME280;18147;51.952;6.146;2023-05-20T07:42:01;102241.72;;;17.74;70.39
31538;BME280;18147;51.952;6.146;2023-05-20T07:44:27;102231.78;;;17.62;69.92
31538;BME280;18147;51.952;6.146;2023-05-20T07:46:56;102221.97;;;17.74;68.03
31538;BME280;18147;51.952;6.146;2023-05-20T07:49:23;102214.91;;;17.71;68.58
31538;BME280;18147;51.952;6.146;2023-05-20T07:51:49;102232.53;;;17.90;67.72
31538;BME280;18147;51.952;6.146;2023-05-20T07:54:15;102223.31;;;18.05;68.81
31538;BME280;18147;51.952;6.146;2023-05-20T07:56:44;102223.44;;;17.91;65.70
31538;BME280;18147;51.952;6.146;2023-05-20T07:59:11;102226.34;;;18.13;66.68
31538;BME280;18147;51.952;6.146;2023-05-20T08:01:41;102212.41;;;18.06;67.58
31538;BME280;18147;51.952;6.146;2023-05-20T08:04:07;102216.84;;;18.07;66.95
31538;BME280;18147;51.952;6.146;2023-05-20T08:06:35;102214.28;;;17.68;65.24
31538;BME280;18147;51.952;6.146;2023-05-20T08:09:02;102215.78;;;17.97;65.56
31538;BME280;18147;51.952;6.146;2023-05-20T08:11:34;102225.09;;;18.17;65.61
31538;BME280;18147;51.952;6.146;2023-05-20T08:14:01;102217.84;;;18.30;65.32
31538;BME280;18147;51.952;6.146;2023-05-20T08:16:31;102210.25;;;18.35;64.23
31538;BME280;18147;51.952;6.146;2023-05-20T08:18:58;102214.78;;;18.35;66.54
31538;BME280;18147;51.952;6.146;2023-05-20T08:21:24;102221.38;;;18.68;65.43
31538;BME280;18147;51.952;6.146;2023-05-20T08:23:50;102225.41;;;18.25;62.81
31538;BME280;18147;51.952;6.146;2023-05-20T08:26:16;102208.75;;;18.55;63.76
31538;BME280;18147;51.952;6.146;2023-05-20T08:28:46;102207.09;;;18.42;61.52
31538;BME280;18147;51.952;6.146;2023-05-20T08:31:14;102226.66;;;18.08;63.24
31538;BME280;18147;51.952;6.146;2023-05-20T08:33:42;102210.22;;;18.11;61.92
31538;BME280;18147;51.952;6.146;2023-05-20T08:36:08;102213.63;;;18.26;62.99
31538;BME280;18147;51.952;6.146;2023-05-20T08:38:35;102195.31;;;18.19;61.65
31538;BME280;18147;51.952;6.146;2023-05-20T08:41:01;102206.31;;;17.53;63.07
31538;BME280;18147;51.952;6.146;2023-05-20T08:43:26;102200.22;;;18.01;61.95
31538;BME280;18147;51.952;6.146;2023-05-20T08:45:52;102203.47;;;18.54;60.48
31538;BME280;18147;51.952;6.146;2023-05-20T08:48:22;102207.09;;;18.18;60.16
31538;BME280;18147;51.952;6.146;2023-05-20T08:50:52;102204.75;;;18.00;61.08
31538;BME280;18147;51.952;6.146;2023-05-20T08:53:19;102200.47;;;17.85;61.64
31538;BME280;18147;51.952;6.146;2023-05-20T08:55:52;102205.75;;;17.86;60.88
31538;BME280;18147;51.952;6.146;2023-05-20T08:58:18;102190.19;;;18.03;60.78
31538;BME280;18147;51.952;6.146;2023-05-20T09:00:44;102189.06;;;18.18;59.01
31538;BME280;18147;51.952;6.146;2023-05-20T09:03:11;102194.16;;;18.34;59.40
31538;BME280;18147;51.952;6.146;2023-05-20T09:05:37;102210.03;;;18.38;60.84
31538;BME280;18147;51.952;6.146;2023-05-20T09:08:07;102186.28;;;18.31;60.03
31538;BME280;18147;51.952;6.146;2023-05-20T09:10:35;102179.31;;;18.16;59.39
31538;BME280;18147;51.952;6.146;2023-05-20T09:13:02;102165.63;;;18.43;59.66
31538;BME280;18147;51.952;6.146;2023-05-20T09:15:32;102184.53;;;18.43;59.87
31538;BME280;18147;51.952;6.146;2023-05-20T09:18:03;102189.84;;;18.68;60.49
31538;BME280;18147;51.952;6.146;2023-05-20T09:20:33;102182.16;;;18.38;59.69
31538;BME280;18147;51.952;6.146;2023-05-20T09:23:00;102178.66;;;18.25;59.56
31538;BME280;18147;51.952;6.146;2023-05-20T09:25:27;102181.28;;;18.14;59.91
31538;BME280;18147;51.952;6.146;2023-05-20T09:27:53;102175.84;;;18.74;61.11
31538;BME280;18147;51.952;6.146;2023-05-20T09:30:20;102166.16;;;18.11;60.78
31538;BME280;18147;51.952;6.146;2023-05-20T09:32:55;102185.31;;;18.80;59.81
31538;BME280;18147;51.952;6.146;2023-05-20T09:35:26;102183.59;;;18.79;59.52
31538;BME280;18147;51.952;6.146;2023-05-20T09:37:56;102171.06;;;18.78;61.81
31538;BME280;18147;51.952;6.146;2023-05-20T09:40:27;102193.53;;;18.54;61.49
31538;BME280;18147;51.952;6.146;2023-05-20T09:42:56;102189.06;;;18.18;60.17
31538;BME280;18147;51.952;6.146;2023-05-20T09:45:25;102175.50;;;18.55;61.49
31538;BME280;18147;51.952;6.146;2023-05-20T09:47:51;102157.09;;;18.60;60.39
31538;BME280;18147;51.952;6.146;2023-05-20T09:50:19;102176.31;;;18.44;60.11
31538;BME280;18147;51.952;6.146;2023-05-20T09:52:48;102158.63;;;18.51;61.41
31538;BME280;18147;51.952;6.146;2023-05-20T09:55:15;102168.00;;;18.10;59.62
31538;BME280;18147;51.952;6.146;2023-05-20T09:57:42;102149.69;;;18.86;61.53
31538;BME280;18147;51.952;6.146;2023-05-20T10:00:08;102153.97;;;19.35;59.46
31538;BME280;18147;51.952;6.146;2023-05-20T10:02:59;102149.34;;;18.67;58.66
31538;BME280;18147;51.952;6.146;2023-05-20T10:05:30;102165.56;;;18.67;61.32
31538;BME280;18147;51.952;6.146;2023-05-20T10:08:22;102150.13;;;19.15;59.79
31538;BME280;18147;51.952;6.146;2023-05-20T10:13:54;102133.06;;;19.37;58.82
31538;BME280;18147;51.952;6.146;2023-05-20T10:22:08;102138.13;;;19.64;60.70
31538;BME280;18147;51.952;6.146;2023-05-20T10:24:40;102133.81;;;19.61;61.49
31538;BME280;18147;51.952;6.146;2023-05-20T10:27:11;102123.09;;;19.37;58.47
31538;BME280;18147;51.952;6.146;2023-05-20T10:29:42;102122.47;;;19.23;58.45
31538;BME280;18147;51.952;6.146;2023-05-20T10:32:10;102123.00;;;19.28;58.83
31538;BME280;18147;51.952;6.146;2023-05-20T10:34:57;102114.84;;;19.17;58.72
31538;BME280;18147;51.952;6.146;2023-05-20T10:37:29;102118.41;;;19.17;57.75
31538;BME280;18147;51.952;6.146;2023-05-20T10:40:08;102118.91;;;19.56;57.98
31538;BME280;18147;51.952;6.146;2023-05-20T10:42:37;102114.47;;;19.21;58.48
31538;BME280;18147;51.952;6.146;2023-05-20T10:45:06;102113.53;;;19.33;57.70
31538;BME280;18147;51.952;6.146;2023-05-20T10:47:52;102114.78;;;19.63;57.89
31538;BME280;18147;51.952;6.146;2023-05-20T10:50:33;102095.94;;;19.61;58.87
31538;BME280;18147;51.952;6.146;2023-05-20T10:53:06;102108.81;;;19.80;57.63
31538;BME280;18147;51.952;6.146;2023-05-20T10:55:36;102107.84;;;19.25;58.38
31538;BME280;18147;51.952;6.146;2023-05-20T10:58:04;102091.38;;;19.17;58.09
31538;BME280;18147;51.952;6.146;2023-05-20T11:00:36;102112.25;;;19.37;59.45
31538;BME280;18147;51.952;6.146;2023-05-20T11:03:06;102104.66;;;19.31;58.50
31538;BME280;18147;51.952;6.146;2023-05-20T11:05:32;102106.50;;;19.20;58.68
31538;BME280;18147;51.952;6.146;2023-05-20T11:08:02;102104.44;;;19.23;58.07
31538;BME280;18147;51.952;6.146;2023-05-20T11:10:35;102094.91;;;19.85;55.95
31538;BME280;18147;51.952;6.146;2023-05-20T11:13:02;102111.53;;;19.35;57.56
31538;BME280;18147;51.952;6.146;2023-05-20T11:15:35;102112.03;;;19.18;57.97
31538;BME280;18147;51.952;6.146;2023-05-20T11:18:06;102108.13;;;19.33;58.49
31538;BME280;18147;51.952;6.146;2023-05-20T11:20:32;102103.53;;;19.23;58.41
31538;BME280;18147;51.952;6.146;2023-05-20T11:23:10;102091.44;;;19.83;57.47
31538;BME280;18147;51.952;6.146;2023-05-20T11:25:37;102095.63;;;19.98;55.63
31538;BME280;18147;51.952;6.146;2023-05-20T11:28:07;102080.47;;;19.96;54.16
31538;BME280;18147;51.952;6.146;2023-05-20T11:30:35;102095.63;;;19.87;53.54
31538;BME280;18147;51.952;6.146;2023-05-20T11:33:02;102085.47;;;19.68;55.55
31538;BME280;18147;51.952;6.146;2023-05-20T11:35:31;102077.03;;;20.26;55.18
31538;BME280;18147;51.952;6.146;2023-05-20T11:38:06;102088.34;;;20.31;54.94
31538;BME280;18147;51.952;6.146;2023-05-20T11:40:42;102082.31;;;20.27;56.01
31538;BME280;18147;51.952;6.146;2023-05-20T11:43:10;102075.41;;;20.34;54.93
31538;BME280;18147;51.952;6.146;2023-05-20T11:45:44;102078.84;;;20.36;55.64
31538;BME280;18147;51.952;6.146;2023-05-20T11:48:10;102080.94;;;20.01;55.22
31538;BME280;18147;51.952;6.146;2023-05-20T11:50:45;102070.72;;;20.36;56.27
31538;BME280;18147;51.952;6.146;2023-05-20T11:53:18;102082.16;;;20.08;55.19
31538;BME280;18147;51.952;6.146;2023-05-20T11:55:52;102075.44;;;19.91;55.64
31538;BME280;18147;51.952;6.146;2023-05-20T11:58:19;102055.22;;;20.27;54.11
31538;BME280;18147;51.952;6.146;2023-05-20T12:00:46;102062.09;;;20.31;53.86
31538;BME280;18147;51.952;6.146;2023-05-20T12:03:12;102053.34;;;20.81;54.86
31538;BME280;18147;51.952;6.146;2023-05-20T12:05:38;102053.50;;;20.79;53.00
31538;BME280;18147;51.952;6.146;2023-05-20T12:08:06;102061.50;;;20.60;55.06
31538;BME280;18147;51.952;6.146;2023-05-20T12:10:36;102056.09;;;20.28;54.19
31538;BME280;18147;51.952;6.146;2023-05-20T12:13:06;102045.25;;;20.28;54.50
31538;BME280;18147;51.952;6.146;2023-05-20T12:15:40;102043.44;;;20.28;54.90
31538;BME280;18147;51.952;6.146;2023-05-20T12:18:07;102037.28;;;20.47;53.69
31538;BME280;18147;51.952;6.146;2023-05-20T12:20:36;102032.72;;;20.48;54.74
31538;BME280;18147;51.952;6.146;2023-05-20T12:23:02;102023.72;;;20.89;56.21
31538;BME280;18147;51.952;6.146;2023-05-20T12:25:29;102018.00;;;20.92;55.67
31538;BME280;18147;51.952;6.146;2023-05-20T12:27:55;102034.16;;;20.73;56.67
31538;BME280;18147;51.952;6.146;2023-05-20T12:30:25;102029.75;;;20.72;55.21
31538;BME280;18147;51.952;6.146;2023-05-20T12:32:51;102026.44;;;20.68;53.91
31538;BME280;18147;51.952;6.146;2023-05-20T12:35:35;102024.38;;;20.18;54.38
31538;BME280;18147;51.952;6.146;2023-05-20T12:38:01;102013.44;;;20.62;55.84
31538;BME280;18147;51.952;6.146;2023-05-20T12:40:27;102016.06;;;20.73;53.57
31538;BME280;18147;51.952;6.146;2023-05-20T12:42:56;102005.97;;;20.33;56.60
31538;BME280;18147;51.952;6.146;2023-05-20T12:45:22;102011.31;;;20.24;57.66
31538;BME280;18147;51.952;6.146;2023-05-20T12:47:48;102012.75;;;20.28;54.33
31538;BME280;18147;51.952;6.146;2023-05-20T12:50:14;102012.66;;;20.50;54.08
31538;BME280;18147;51.952;6.146;2023-05-20T12:52:39;102001.34;;;20.66;56.82
31538;BME280;18147;51.952;6.146;2023-05-20T12:55:06;101998.06;;;21.03;55.93
31538;BME280;18147;51.952;6.146;2023-05-20T12:57:46;101999.22;;;21.00;53.38